createdAt,value
2023-07-20T00:01:54.520Z,9.80
2023-07-20T00:04:21.222Z,9.32
2023-07-20T00:06:47.829Z,8.00
2023-07-20T00:09:16.759Z,8.82
2023-07-20T00:11:45.692Z,8.52
2023-07-20T00:14:12.221Z,11.77
2023-07-20T00:16:40.873Z,10.70
2023-07-20T00:19:08.183Z,11.27
2023-07-20T00:21:34.869Z,13.02
2023-07-20T00:24:01.422Z,7.70
2023-07-20T00:26:30.914Z,9.07
2023-07-20T00:28:57.458Z,10.93
2023-07-20T00:31:23.965Z,10.25
2023-07-20T00:33:50.489Z,10.32
2023-07-20T00:36:17.073Z,10.75
2023-07-20T00:38:43.668Z,10.43
2023-07-20T00:41:10.461Z,9.98
2023-07-20T00:43:37.014Z,10.23
2023-07-20T00:46:04.202Z,12.73
2023-07-20T00:48:31.184Z,8.95
2023-07-20T00:50:57.899Z,10.68
2023-07-20T00:53:24.527Z,9.45
2023-07-20T00:55:51.054Z,10.77
2023-07-20T00:58:17.597Z,9.90
2023-07-20T01:00:44.117Z,11.73
2023-07-20T01:03:10.724Z,11.00
2023-07-20T01:05:39.923Z,12.65
2023-07-20T01:08:38.914Z,12.05
2023-07-20T01:11:11.726Z,15.82
2023-07-20T01:13:38.614Z,15.02
2023-07-20T01:16:05.204Z,11.15
2023-07-20T01:18:34.087Z,13.20
2023-07-20T01:21:01.080Z,13.05
2023-07-20T01:23:27.652Z,12.68
2023-07-20T01:25:57.757Z,15.32
2023-07-20T01:28:42.785Z,13.73
2023-07-20T01:31:32.156Z,13.20
2023-07-20T01:34:01.529Z,11.25
2023-07-20T01:36:29.384Z,13.88
2023-07-20T01:38:55.948Z,15.68
2023-07-20T01:41:22.582Z,13.32
2023-07-20T01:43:49.190Z,16.92
2023-07-20T01:46:15.869Z,13.00
2023-07-20T01:48:42.543Z,16.15
2023-07-20T01:51:09.328Z,15.70
2023-07-20T01:53:35.916Z,13.48
2023-07-20T01:56:02.447Z,12.32
2023-07-20T01:58:28.999Z,11.73
2023-07-20T02:00:58.086Z,14.38
2023-07-20T02:03:26.977Z,12.52
2023-07-20T02:05:53.565Z,12.23
2023-07-20T02:08:22.434Z,14.13
2023-07-20T02:10:49.370Z,14.75
2023-07-20T02:13:15.964Z,11.57
2023-07-20T02:15:43.697Z,12.90
2023-07-20T02:18:10.550Z,13.45
2023-07-20T02:20:37.198Z,13.93
2023-07-20T02:23:03.802Z,17.60
2023-07-20T02:25:30.411Z,12.93
2023-07-20T02:27:57.836Z,10.52
2023-07-20T02:30:24.561Z,12.32
2023-07-20T02:32:51.147Z,12.48
2023-07-20T02:35:17.776Z,13.82
2023-07-20T02:37:45.133Z,10.90
2023-07-20T02:40:12.476Z,11.77
2023-07-20T02:42:39.483Z,12.85
2023-07-20T02:45:06.400Z,12.70
2023-07-20T02:47:33.127Z,15.07
2023-07-20T02:50:01.992Z,14.38
2023-07-20T02:52:31.038Z,18.17
2023-07-20T02:54:57.598Z,12.63
2023-07-20T02:57:24.188Z,12.60
2023-07-20T02:59:53.543Z,14.98
2023-07-20T03:02:21.337Z,12.63
2023-07-20T03:04:47.946Z,16.25
2023-07-20T03:07:14.508Z,13.43
2023-07-20T03:09:42.141Z,13.02
2023-07-20T03:12:09.638Z,14.40
2023-07-20T03:14:36.279Z,11.48
2023-07-20T03:17:02.976Z,18.15
2023-07-20T03:19:29.528Z,14.43
2023-07-20T03:21:56.030Z,17.23
2023-07-20T03:24:22.900Z,16.65
2023-07-20T03:26:50.288Z,15.05
2023-07-20T03:29:17.460Z,12.43
2023-07-20T03:31:49.405Z,11.70
2023-07-20T03:34:16.504Z,12.70
2023-07-20T03:36:45.522Z,17.75
2023-07-20T03:39:14.441Z,12.82
2023-07-20T03:41:41.020Z,17.90
2023-07-20T03:44:07.556Z,12.68
2023-07-20T03:46:35.381Z,11.98
2023-07-20T03:49:04.395Z,15.95
2023-07-20T03:51:33.322Z,11.15
2023-07-20T03:54:02.145Z,13.40
2023-07-20T03:56:28.847Z,11.00
2023-07-20T03:58:55.476Z,12.43
2023-07-20T04:01:22.076Z,11.30
2023-07-20T04:03:49.978Z,8.55
2023-07-20T04:06:18.651Z,10.45
2023-07-20T04:08:45.651Z,10.18
2023-07-20T04:11:12.155Z,9.18
2023-07-20T04:13:38.736Z,13.23
2023-07-20T04:16:05.492Z,11.05
2023-07-20T04:18:32.032Z,14.13
2023-07-20T04:20:58.605Z,8.55
2023-07-20T04:23:25.133Z,10.70
2023-07-20T04:25:53.112Z,8.95
2023-07-20T04:28:21.990Z,10.85
2023-07-20T04:30:50.056Z,11.45
2023-07-20T04:33:16.614Z,10.98
2023-07-20T04:35:50.027Z,10.25
2023-07-20T04:38:18.795Z,12.65
2023-07-20T04:40:48.311Z,12.20
2023-07-20T04:43:15.292Z,12.45
2023-07-20T04:45:42.013Z,10.60
2023-07-20T04:48:10.136Z,11.07
2023-07-20T04:50:36.683Z,10.02
2023-07-20T04:53:03.532Z,15.90
2023-07-20T04:55:30.039Z,8.25
2023-07-20T04:57:56.806Z,9.38
2023-07-20T05:00:23.408Z,11.57
2023-07-20T05:02:50.309Z,13.85
2023-07-20T05:05:16.915Z,10.80
2023-07-20T05:07:43.547Z,15.35
2023-07-20T05:10:10.214Z,10.75
2023-07-20T05:12:36.794Z,19.88
2023-07-20T05:15:04.266Z,10.57
2023-07-20T05:17:30.934Z,12.02
2023-07-20T05:20:00.703Z,12.02
2023-07-20T05:22:27.385Z,9.25
2023-07-20T05:24:53.964Z,13.00
2023-07-20T05:27:20.529Z,13.98
2023-07-20T05:29:47.602Z,11.27
2023-07-20T05:32:14.275Z,12.85
2023-07-20T05:34:43.225Z,11.68
2023-07-20T05:37:14.760Z,12.07
2023-07-20T05:39:41.750Z,10.48
2023-07-20T05:42:08.397Z,12.75
2023-07-20T05:44:38.606Z,11.13
2023-07-20T05:47:05.882Z,10.32
2023-07-20T05:49:32.543Z,11.38
2023-07-20T05:51:59.183Z,13.27
2023-07-20T05:54:25.768Z,13.65
2023-07-20T05:56:52.313Z,11.95
2023-07-20T05:59:18.962Z,10.82
2023-07-20T06:01:45.559Z,13.10
2023-07-20T06:04:12.151Z,9.68
2023-07-20T06:06:38.785Z,12.80
2023-07-20T06:09:06.460Z,13.45
2023-07-20T06:11:32.970Z,11.25
2023-07-20T06:14:01.898Z,12.75
2023-07-20T06:16:28.433Z,17.92
2023-07-20T06:18:55.002Z,9.82
2023-07-20T06:21:21.551Z,12.73
2023-07-20T06:23:48.217Z,10.20
2023-07-20T06:26:14.757Z,14.25
2023-07-20T06:28:41.745Z,12.40
2023-07-20T06:31:08.376Z,9.25
2023-07-20T06:33:35.905Z,11.93
2023-07-20T06:36:02.590Z,11.75
2023-07-20T06:38:32.258Z,12.40
2023-07-20T06:41:42.774Z,16.58
2023-07-20T06:46:15.386Z,9.85
2023-07-20T06:51:11.397Z,10.65
2023-07-20T06:53:38.403Z,9.85
2023-07-20T06:56:04.961Z,10.40
2023-07-20T06:58:31.526Z,9.38
2023-07-20T07:00:58.053Z,10.50
2023-07-20T07:03:28.395Z,9.75
2023-07-20T07:05:56.656Z,11.02
2023-07-20T07:08:25.687Z,9.70
2023-07-20T07:10:52.249Z,9.73
2023-07-20T07:13:18.766Z,10.27
2023-07-20T07:15:45.327Z,9.23
2023-07-20T07:18:11.898Z,9.55
2023-07-20T07:20:38.431Z,9.00
2023-07-20T07:23:05.007Z,9.02
2023-07-20T07:25:33.391Z,9.10
2023-07-20T07:28:00.371Z,8.68
2023-07-20T07:30:27.015Z,8.10
2023-07-20T07:32:53.610Z,11.32
2023-07-20T07:35:20.133Z,11.05
2023-07-20T07:38:03.357Z,8.68
2023-07-20T07:40:34.375Z,10.57
2023-07-20T07:43:00.907Z,8.75
2023-07-20T07:45:27.431Z,8.77
2023-07-20T07:47:56.306Z,11.27
2023-07-20T07:50:25.342Z,8.35
2023-07-20T07:52:51.995Z,12.95
2023-07-20T07:55:19.077Z,8.50
2023-07-20T07:57:45.742Z,10.73
2023-07-20T08:00:15.741Z,11.07
2023-07-20T08:02:43.448Z,9.23
2023-07-20T08:05:10.319Z,8.27
2023-07-20T08:07:37.541Z,10.48
2023-07-20T08:10:04.976Z,7.93
2023-07-20T08:12:31.711Z,9.55
2023-07-20T08:14:58.307Z,13.68
2023-07-20T08:17:24.916Z,8.00
2023-07-20T08:19:51.656Z,10.77
2023-07-20T08:22:18.158Z,10.70
2023-07-20T08:24:44.805Z,9.77
2023-07-20T08:27:11.525Z,10.15
2023-07-20T08:29:38.739Z,9.32
2023-07-20T08:32:05.830Z,15.52
2023-07-20T08:34:32.519Z,8.05
2023-07-20T08:36:59.480Z,10.32
2023-07-20T08:39:28.440Z,9.65
2023-07-20T08:41:55.362Z,11.25
2023-07-20T08:44:22.048Z,8.45
2023-07-20T08:46:48.659Z,8.43
2023-07-20T08:49:15.339Z,9.77
2023-07-20T08:51:42.124Z,10.50
2023-07-20T08:54:09.254Z,10.27
2023-07-20T08:56:35.821Z,9.95
2023-07-20T08:59:02.410Z,11.73
2023-07-20T09:01:29.601Z,7.28
2023-07-20T09:03:56.201Z,8.23
2023-07-20T09:06:22.981Z,9.98
2023-07-20T09:08:49.737Z,8.10
2023-07-20T09:11:18.624Z,9.68
2023-07-20T09:13:45.213Z,7.95
2023-07-20T09:16:14.565Z,11.13
2023-07-20T09:18:42.952Z,8.60
2023-07-20T09:21:09.680Z,10.40
2023-07-20T09:23:36.795Z,8.98
2023-07-20T09:26:15.196Z,9.13
2023-07-20T09:28:47.992Z,11.05
2023-07-20T09:31:18.755Z,9.73
2023-07-20T09:36:57.377Z,8.68
2023-07-20T09:41:46.014Z,8.63
2023-07-20T09:51:43.514Z,7.80
2023-07-20T09:54:10.193Z,9.82
2023-07-20T09:56:36.807Z,9.23
2023-07-20T09:59:03.395Z,7.07
2023-07-20T10:01:32.689Z,6.95
2023-07-20T10:03:59.721Z,8.10
2023-07-20T10:06:26.390Z,9.40
2023-07-20T10:08:53.776Z,6.95
2023-07-20T10:11:20.286Z,7.38
2023-07-20T10:13:46.788Z,7.38
2023-07-20T10:16:14.545Z,6.82
2023-07-20T10:19:00.684Z,6.10
2023-07-20T10:23:59.657Z,8.25
2023-07-20T10:26:27.480Z,7.72
2023-07-20T10:28:54.628Z,7.43
2023-07-20T10:31:21.210Z,7.07
2023-07-20T10:33:47.680Z,8.02
2023-07-20T10:36:14.225Z,7.78
2023-07-20T10:38:43.909Z,7.63
2023-07-20T10:41:29.304Z,8.57
2023-07-20T10:44:05.783Z,8.13
2023-07-20T10:46:36.610Z,9.15
2023-07-20T10:49:04.095Z,6.85
2023-07-20T10:51:30.791Z,7.70
2023-07-20T10:53:59.506Z,7.35
2023-07-20T10:56:31.848Z,7.75
2023-07-20T10:58:59.191Z,8.55
2023-07-20T11:01:28.669Z,5.63
2023-07-20T11:03:58.002Z,6.60
2023-07-20T11:06:27.386Z,8.38
2023-07-20T11:08:57.526Z,6.68
2023-07-20T11:11:25.090Z,7.50
2023-07-20T11:13:55.647Z,6.32
2023-07-20T11:16:22.219Z,8.38
2023-07-20T11:18:49.209Z,8.07
2023-07-20T11:21:17.004Z,7.20
2023-07-20T11:23:43.633Z,8.18
2023-07-20T11:26:11.228Z,6.90
2023-07-20T11:28:38.270Z,6.65
2023-07-20T11:31:04.823Z,7.40
2023-07-20T11:33:31.333Z,7.32
2023-07-20T11:35:58.278Z,6.97
2023-07-20T11:38:25.236Z,7.63
2023-07-20T11:40:52.567Z,7.10
2023-07-20T11:43:20.665Z,8.48
2023-07-20T11:45:47.318Z,11.23
2023-07-20T11:48:17.589Z,6.97
2023-07-20T11:50:44.257Z,7.82
2023-07-20T11:53:10.864Z,7.95
2023-07-20T11:55:37.456Z,8.35
2023-07-20T11:58:04.540Z,8.82
2023-07-20T12:00:31.133Z,6.03
2023-07-20T12:02:57.666Z,8.35
2023-07-20T12:05:24.413Z,8.02
2023-07-20T12:07:52.246Z,6.03
2023-07-20T12:10:24.472Z,7.43
2023-07-20T12:12:50.995Z,8.13
2023-07-20T12:15:17.806Z,6.82
2023-07-20T12:17:47.917Z,6.75
2023-07-20T12:20:15.305Z,7.97
2023-07-20T12:22:42.503Z,8.40
2023-07-20T12:25:09.556Z,12.27
2023-07-20T12:27:39.519Z,7.60
2023-07-20T12:30:07.013Z,6.68
2023-07-20T12:32:34.110Z,8.00
2023-07-20T12:35:01.704Z,8.27
2023-07-20T12:37:28.384Z,6.80
2023-07-20T12:39:54.936Z,6.93
2023-07-20T12:42:21.484Z,7.03
2023-07-20T12:44:48.597Z,6.55
2023-07-20T12:47:15.181Z,8.90
2023-07-20T12:49:46.387Z,7.82
2023-07-20T12:52:13.086Z,7.75
2023-07-20T12:54:39.649Z,7.53
2023-07-20T12:59:35.949Z,11.18
2023-07-20T13:02:02.551Z,8.18
2023-07-20T13:04:29.191Z,6.90
2023-07-20T13:06:55.931Z,8.50
2023-07-20T13:09:24.835Z,6.97
2023-07-20T13:11:53.745Z,8.18
2023-07-20T13:14:20.334Z,8.50
2023-07-20T13:16:47.087Z,6.30
2023-07-20T13:19:13.729Z,8.90
2023-07-20T13:21:40.220Z,6.30
2023-07-20T13:24:06.995Z,7.70
2023-07-20T13:26:35.054Z,7.53
2023-07-20T13:29:01.721Z,7.57
2023-07-20T13:31:33.084Z,8.38
2023-07-20T13:34:01.254Z,8.75
2023-07-20T13:36:30.411Z,8.60
2023-07-20T13:38:57.268Z,9.02
2023-07-20T13:41:24.756Z,9.40
2023-07-20T13:43:57.771Z,6.80
2023-07-20T13:48:56.065Z,8.18
2023-07-20T13:51:27.825Z,7.95
2023-07-20T13:53:57.343Z,7.38
2023-07-20T13:56:24.635Z,7.75
2023-07-20T13:58:51.853Z,8.98
2023-07-20T14:03:54.123Z,7.18
2023-07-20T14:06:23.390Z,8.05
2023-07-20T14:08:51.590Z,11.55
2023-07-20T14:13:48.198Z,7.57
2023-07-20T14:16:14.923Z,7.07
2023-07-20T14:18:42.146Z,10.05
2023-07-20T14:21:09.562Z,6.82
2023-07-20T14:23:37.506Z,9.50
2023-07-20T14:26:07.124Z,9.88
2023-07-20T14:28:37.048Z,9.68
2023-07-20T14:31:03.624Z,6.60
2023-07-20T14:33:30.315Z,7.93
2023-07-20T14:35:59.558Z,8.65
2023-07-20T14:38:26.159Z,6.85
2023-07-20T14:40:53.647Z,7.65
2023-07-20T14:43:20.279Z,8.95
2023-07-20T14:45:46.823Z,7.32
2023-07-20T14:48:13.467Z,6.47
2023-07-20T14:50:40.286Z,5.90
2023-07-20T14:53:07.115Z,8.20
2023-07-20T14:55:33.670Z,9.02
2023-07-20T14:58:00.213Z,6.95
2023-07-20T15:00:26.881Z,10.45
2023-07-20T15:02:57.280Z,6.65
2023-07-20T15:05:24.316Z,6.82
2023-07-20T15:07:50.988Z,7.05
2023-07-20T15:10:17.544Z,8.15
2023-07-20T15:12:44.142Z,8.25
2023-07-20T15:15:11.393Z,9.10
2023-07-20T15:17:38.577Z,8.20
2023-07-20T15:20:08.567Z,6.82
2023-07-20T15:22:35.625Z,8.48
2023-07-20T15:25:03.288Z,8.13
2023-07-20T15:27:30.824Z,7.13
2023-07-20T15:29:57.364Z,6.57
2023-07-20T15:32:23.950Z,6.72
2023-07-20T15:34:52.841Z,7.05
2023-07-20T15:37:19.390Z,9.32
2023-07-20T15:39:49.134Z,6.60
2023-07-20T15:42:15.697Z,7.63
2023-07-20T15:44:42.186Z,8.20
2023-07-20T15:47:11.107Z,7.75
2023-07-20T15:49:38.012Z,6.32
2023-07-20T15:52:05.015Z,6.10
2023-07-20T15:54:31.581Z,5.35
2023-07-20T15:56:58.120Z,8.32
2023-07-20T15:59:24.676Z,7.05
2023-07-20T16:01:51.266Z,8.02
2023-07-20T16:04:17.823Z,8.48
2023-07-20T16:06:44.327Z,7.18
2023-07-20T16:09:10.837Z,6.93
2023-07-20T16:11:38.183Z,13.45
2023-07-20T16:14:06.616Z,10.30
2023-07-20T16:16:34.547Z,8.05
2023-07-20T16:19:01.189Z,7.38
2023-07-20T16:21:28.024Z,6.88
2023-07-20T16:23:54.694Z,9.40
2023-07-20T16:26:22.080Z,6.50
2023-07-20T16:28:48.686Z,6.63
2023-07-20T16:31:15.468Z,8.15
2023-07-20T16:36:16.021Z,10.00
2023-07-20T16:38:44.282Z,6.20
2023-07-20T16:41:11.171Z,8.18
2023-07-20T16:48:55.958Z,6.55
2023-07-20T16:51:23.232Z,7.40
2023-07-20T16:53:50.001Z,7.72
2023-07-20T16:56:18.911Z,6.22
2023-07-20T16:58:45.471Z,4.90
2023-07-20T17:01:12.029Z,7.10
2023-07-20T17:03:38.710Z,7.30
2023-07-20T17:06:06.761Z,5.07
2023-07-20T17:08:33.285Z,7.35
2023-07-20T17:11:03.677Z,6.63
2023-07-20T17:13:31.138Z,7.80
2023-07-20T17:15:57.838Z,9.48
2023-07-20T17:18:24.405Z,5.40
2023-07-20T17:20:52.874Z,5.93
2023-07-20T17:24:01.323Z,6.38
2023-07-20T17:31:05.377Z,7.13
2023-07-20T17:33:31.944Z,6.00
2023-07-20T17:40:57.633Z,7.03
2023-07-20T17:43:24.227Z,5.95
2023-07-20T17:45:51.469Z,6.15
2023-07-20T17:48:18.979Z,8.73
2023-07-20T17:50:45.714Z,7.47
2023-07-20T17:53:12.440Z,6.15
2023-07-20T17:55:38.991Z,6.75
2023-07-20T17:58:05.524Z,6.20
2023-07-20T18:03:02.136Z,6.72
2023-07-20T18:05:28.754Z,7.55
2023-07-20T18:07:55.292Z,6.43
2023-07-20T18:10:21.839Z,10.50
2023-07-20T18:12:48.586Z,12.18
2023-07-20T18:15:15.252Z,8.30
2023-07-20T18:17:41.928Z,6.53
2023-07-20T18:20:10.525Z,9.95
2023-07-20T18:22:37.133Z,8.02
2023-07-20T18:25:05.922Z,7.57
2023-07-20T18:27:33.204Z,7.10
2023-07-20T18:30:00.377Z,9.07
2023-07-20T18:32:27.267Z,5.82
2023-07-20T18:34:54.070Z,6.75
2023-07-20T18:37:21.657Z,7.45
2023-07-20T18:39:48.312Z,7.07
2023-07-20T18:42:14.961Z,7.85
2023-07-20T18:44:41.573Z,7.70
2023-07-20T18:47:10.490Z,7.07
2023-07-20T18:49:37.277Z,8.25
2023-07-20T18:52:05.174Z,6.15
2023-07-20T18:54:32.024Z,7.22
2023-07-20T18:56:59.007Z,6.18
2023-07-20T18:59:25.548Z,5.88
2023-07-20T19:01:52.267Z,6.70
2023-07-20T19:04:18.929Z,6.47
2023-07-20T19:06:45.520Z,6.55
2023-07-20T19:09:12.030Z,7.82
2023-07-20T19:14:08.755Z,7.93
2023-07-20T19:16:35.518Z,6.15
2023-07-20T19:19:02.082Z,6.28
2023-07-20T19:21:30.927Z,6.30
2023-07-20T19:23:57.432Z,6.15
2023-07-20T19:26:24.664Z,9.80
2023-07-20T19:28:51.302Z,7.28
2023-07-20T19:31:18.013Z,7.00
2023-07-20T19:33:44.567Z,8.32
2023-07-20T19:36:11.212Z,7.32
2023-07-20T19:38:37.936Z,6.95
2023-07-20T19:41:06.597Z,9.98
2023-07-20T19:43:33.519Z,6.80
2023-07-20T19:46:00.151Z,6.75
2023-07-20T19:48:26.729Z,6.95
2023-07-20T19:50:53.408Z,9.02
2023-07-20T19:55:49.859Z,8.80
2023-07-20T19:58:16.414Z,7.85
2023-07-20T20:05:43.317Z,7.97
2023-07-20T20:08:09.981Z,8.85
2023-07-20T20:13:08.383Z,10.13
2023-07-20T20:15:34.992Z,8.07
2023-07-20T20:18:04.533Z,7.20
2023-07-20T20:20:34.153Z,10.38
2023-07-20T20:23:00.799Z,10.77
2023-07-20T20:25:27.573Z,12.55
2023-07-20T20:27:55.284Z,15.40
2023-07-20T20:30:25.057Z,15.18
2023-07-20T20:32:51.977Z,11.88
2023-07-20T20:35:20.959Z,16.30
2023-07-20T20:37:47.536Z,13.93
2023-07-20T20:40:14.990Z,14.38
2023-07-20T20:42:41.687Z,12.27
2023-07-20T20:45:11.745Z,13.60
2023-07-20T20:47:39.687Z,13.60
2023-07-20T20:50:07.223Z,14.00
2023-07-20T20:52:36.966Z,10.25
2023-07-20T20:55:06.745Z,14.18
2023-07-20T20:57:33.294Z,20.38
2023-07-20T21:00:00.031Z,12.15
2023-07-20T21:02:26.617Z,13.55
2023-07-20T21:04:53.332Z,11.60
2023-07-20T21:07:20.102Z,10.43
2023-07-20T21:09:46.688Z,9.15
2023-07-20T21:12:13.302Z,9.90
2023-07-20T21:14:40.523Z,10.15
2023-07-20T21:17:07.114Z,11.45
2023-07-20T21:19:33.637Z,10.35
2023-07-20T21:22:00.154Z,12.38
2023-07-20T21:24:29.067Z,9.10
2023-07-20T21:26:57.793Z,10.30
2023-07-20T21:29:24.394Z,10.35
2023-07-20T21:31:50.942Z,12.18
2023-07-20T21:34:17.446Z,9.73
2023-07-20T21:36:44.412Z,10.55
2023-07-20T21:39:14.040Z,10.27
2023-07-20T21:41:40.776Z,12.80
2023-07-20T21:44:07.570Z,13.65
2023-07-20T21:46:34.826Z,15.73
2023-07-20T21:49:01.428Z,14.15
2023-07-20T21:51:30.352Z,16.67
2023-07-20T21:53:57.011Z,16.45
2023-07-20T21:56:23.872Z,13.15
2023-07-20T21:58:50.550Z,8.43
2023-07-20T22:01:44.185Z,12.55
2023-07-20T22:04:06.769Z,16.00
2023-07-20T22:06:33.489Z,14.63
2023-07-20T22:09:00.038Z,10.02
2023-07-20T22:11:26.634Z,9.73
2023-07-20T22:13:55.520Z,10.43
2023-07-20T22:16:22.179Z,9.63
2023-07-20T22:18:51.076Z,8.82
2023-07-20T22:21:17.877Z,11.40
2023-07-20T22:23:44.940Z,12.45
2023-07-20T22:26:11.572Z,7.57
2023-07-20T22:28:38.590Z,10.90
2023-07-20T22:31:05.126Z,8.85
2023-07-20T22:33:31.640Z,8.93
2023-07-20T22:35:58.168Z,9.13
2023-07-20T22:38:25.500Z,8.88
2023-07-20T22:40:52.203Z,9.77
2023-07-20T22:43:21.698Z,9.40
2023-07-20T22:45:50.258Z,10.73
2023-07-20T22:48:17.185Z,9.73
2023-07-20T22:50:46.068Z,11.27
2023-07-20T22:53:12.564Z,8.57
2023-07-20T22:55:39.039Z,7.32
2023-07-20T22:58:05.608Z,7.15
2023-07-20T23:00:32.504Z,9.48
2023-07-20T23:02:59.308Z,7.45
2023-07-20T23:05:26.039Z,9.68
2023-07-20T23:07:55.581Z,11.65
2023-07-20T23:10:22.784Z,7.38
2023-07-20T23:12:49.305Z,9.70
2023-07-20T23:15:15.891Z,8.80
2023-07-20T23:17:42.774Z,9.88
2023-07-20T23:20:26.642Z,8.98
2023-07-20T23:22:53.217Z,9.38
2023-07-20T23:25:20.268Z,7.75
2023-07-20T23:27:46.809Z,12.45
2023-07-20T23:30:14.046Z,9.88
2023-07-20T23:32:41.082Z,10.30
2023-07-20T23:35:08.522Z,9.32
2023-07-20T23:37:35.092Z,10.07
2023-07-20T23:40:01.634Z,9.75
2023-07-20T23:42:28.320Z,10.35
2023-07-20T23:44:54.915Z,13.23
2023-07-20T23:47:21.519Z,10.32
2023-07-20T23:49:49.180Z,11.70
2023-07-20T23:52:19.733Z,8.18
2023-07-20T23:54:49.360Z,10.63
2023-07-20T23:57:16.024Z,11.75
2023-07-20T23:59:42.561Z,8.00
